createdAt,value
2018-05-13T00:01:42.104Z,14.27
2018-05-13T00:04:10.496Z,12.52
2018-05-13T00:06:39.145Z,14.07
2018-05-13T00:09:07.561Z,16.40
2018-05-13T00:11:35.948Z,12.93
2018-05-13T00:14:05.240Z,11.70
2018-05-13T00:16:33.628Z,12.45
2018-05-13T00:19:02.796Z,13.88
2018-05-13T00:21:31.179Z,14.38
2018-05-13T00:23:59.836Z,12.00
2018-05-13T00:26:28.218Z,12.32
2018-05-13T00:28:56.620Z,11.75
2018-05-13T00:31:25.027Z,13.32
2018-05-13T00:33:54.181Z,12.77
2018-05-13T00:36:22.580Z,14.70
2018-05-13T00:38:50.968Z,15.37
2018-05-13T00:41:20.334Z,21.62
2018-05-13T00:43:48.725Z,14.60
2018-05-13T00:46:17.116Z,13.95
2018-05-13T00:48:45.526Z,12.85
2018-05-13T00:51:14.690Z,13.82
2018-05-13T00:53:43.113Z,11.80
2018-05-13T00:56:11.497Z,15.55
2018-05-13T00:58:40.073Z,15.52
2018-05-13T01:01:08.456Z,11.73
2018-05-13T01:03:36.950Z,17.15
2018-05-13T01:06:05.362Z,17.73
2018-05-13T01:08:33.748Z,13.27
2018-05-13T01:11:02.160Z,18.85
2018-05-13T01:13:31.339Z,18.62
2018-05-13T01:15:59.876Z,12.85
2018-05-13T01:18:28.256Z,16.90
2018-05-13T01:20:56.642Z,20.48
2018-05-13T01:23:25.043Z,14.52
2018-05-13T01:25:53.424Z,16.05
2018-05-13T01:28:22.602Z,12.60
2018-05-13T01:30:50.981Z,13.93
2018-05-13T01:33:19.400Z,12.40
2018-05-13T01:35:48.541Z,13.80
2018-05-13T01:38:16.921Z,15.57
2018-05-13T01:40:45.325Z,22.75
2018-05-13T01:43:13.704Z,16.37
2018-05-13T01:45:42.110Z,17.77
2018-05-13T01:48:11.275Z,19.92
2018-05-13T01:50:39.719Z,27.90
2018-05-13T01:53:08.100Z,15.65
2018-05-13T01:55:36.478Z,16.48
2018-05-13T01:58:04.917Z,19.15
2018-05-13T02:00:33.296Z,16.50
2018-05-13T02:03:01.703Z,15.45
2018-05-13T02:05:30.085Z,16.70
2018-05-13T02:07:58.694Z,22.95
2018-05-13T02:10:27.072Z,17.42
2018-05-13T02:12:55.449Z,16.87
2018-05-13T02:15:23.848Z,24.33
2018-05-13T02:17:52.230Z,16.02
2018-05-13T02:20:20.630Z,18.60
2018-05-13T02:22:49.772Z,22.20
2018-05-13T02:25:18.196Z,18.37
2018-05-13T02:27:46.573Z,16.95
2018-05-13T02:30:14.960Z,22.92
2018-05-13T02:32:44.143Z,16.42
2018-05-13T02:35:12.518Z,19.05
2018-05-13T02:37:40.925Z,17.85
2018-05-13T02:40:10.062Z,16.67
2018-05-13T02:42:38.464Z,19.00
2018-05-13T02:45:06.853Z,18.02
2018-05-13T02:47:35.256Z,18.27
2018-05-13T02:50:04.431Z,21.95
2018-05-13T02:52:32.814Z,20.98
2018-05-13T02:55:01.220Z,19.80
2018-05-13T02:57:29.613Z,18.02
2018-05-13T02:59:58.024Z,17.85
2018-05-13T03:02:26.409Z,19.55
2018-05-13T03:04:54.837Z,21.45
2018-05-13T03:07:23.992Z,19.87
2018-05-13T03:09:52.365Z,24.27
2018-05-13T03:12:20.773Z,21.10
2018-05-13T03:14:49.149Z,17.73
2018-05-13T03:17:18.308Z,20.27
2018-05-13T03:19:46.685Z,20.73
2018-05-13T03:22:15.364Z,20.08
2018-05-13T03:24:43.741Z,20.85
2018-05-13T03:27:12.117Z,24.05
2018-05-13T03:29:40.516Z,21.35
2018-05-13T03:32:08.891Z,19.52
2018-05-13T03:34:37.289Z,21.75
2018-05-13T03:37:05.664Z,22.62
2018-05-13T03:39:34.196Z,28.15
2018-05-13T03:42:02.573Z,21.23
2018-05-13T03:44:30.957Z,20.20
2018-05-13T03:46:59.359Z,22.60
2018-05-13T03:49:27.744Z,23.50
2018-05-13T03:51:56.145Z,19.65
2018-05-13T03:54:24.524Z,28.52
2018-05-13T03:56:53.293Z,31.30
2018-05-13T03:59:21.670Z,19.35
2018-05-13T04:01:50.049Z,20.42
2018-05-13T04:04:18.454Z,17.92
2018-05-13T04:06:46.829Z,24.85
2018-05-13T04:09:33.756Z,25.77
2018-05-13T04:12:21.021Z,21.27
2018-05-13T04:15:07.264Z,20.67
2018-05-13T04:17:35.649Z,24.80
2018-05-13T04:20:04.053Z,23.02
2018-05-13T04:22:32.424Z,21.87
2018-05-13T04:25:01.874Z,27.67
2018-05-13T04:27:30.332Z,32.05
2018-05-13T04:29:58.709Z,19.42
2018-05-13T04:32:27.110Z,23.08
2018-05-13T04:34:55.490Z,25.25
2018-05-13T04:37:23.889Z,31.95
2018-05-13T04:39:52.272Z,25.02
2018-05-13T04:42:20.684Z,21.02
2018-05-13T04:44:49.111Z,24.80
2018-05-13T04:47:17.491Z,23.75
2018-05-13T04:49:45.887Z,21.90
2018-05-13T04:52:14.264Z,23.98
2018-05-13T04:54:42.677Z,22.98
2018-05-13T04:57:11.815Z,23.12
2018-05-13T04:59:40.389Z,24.08
2018-05-13T05:02:08.765Z,28.35
2018-05-13T05:04:37.136Z,23.52
2018-05-13T05:07:05.540Z,23.12
2018-05-13T05:09:33.925Z,22.05
2018-05-13T05:12:02.331Z,27.23
2018-05-13T05:14:31.473Z,28.38
2018-05-13T05:16:59.897Z,25.77
2018-05-13T05:19:28.264Z,23.45
2018-05-13T05:21:56.647Z,41.25
2018-05-13T05:24:25.048Z,26.42
2018-05-13T05:26:54.189Z,38.00
2018-05-13T05:29:22.933Z,25.35
2018-05-13T05:31:52.082Z,25.27
2018-05-13T05:34:20.457Z,25.48
2018-05-13T05:36:48.861Z,23.80
2018-05-13T05:39:17.250Z,25.33
2018-05-13T05:41:46.635Z,29.98
2018-05-13T05:44:15.021Z,24.37
2018-05-13T05:46:43.397Z,27.92
2018-05-13T05:49:11.797Z,23.87
2018-05-13T05:51:40.957Z,20.70
2018-05-13T05:54:09.733Z,24.75
2018-05-13T05:56:38.113Z,21.00
2018-05-13T05:59:06.494Z,24.75
2018-05-13T06:01:34.898Z,23.80
2018-05-13T06:04:03.284Z,24.75
2018-05-13T06:06:32.489Z,21.20
2018-05-13T06:09:01.647Z,19.83
2018-05-13T06:11:30.124Z,20.30
2018-05-13T06:13:58.537Z,22.62
2018-05-13T06:16:26.916Z,33.25
2018-05-13T06:21:30.726Z,20.00
2018-05-13T06:23:59.588Z,20.08
2018-05-13T06:26:27.972Z,19.47
2018-05-13T06:28:56.361Z,18.87
2018-05-13T06:31:24.764Z,19.90
2018-05-13T06:33:53.142Z,19.60
2018-05-13T06:36:22.313Z,22.02
2018-05-13T06:38:50.693Z,17.77
2018-05-13T06:41:19.119Z,23.45
2018-05-13T06:43:48.263Z,16.37
2018-05-13T06:46:16.644Z,19.30
2018-05-13T06:48:45.056Z,14.27
2018-05-13T06:51:14.264Z,14.47
2018-05-13T06:53:42.640Z,15.20
2018-05-13T06:56:11.785Z,11.27
2018-05-13T06:58:40.461Z,17.10
2018-05-13T07:01:08.836Z,17.93
2018-05-13T07:03:37.223Z,13.57
2018-05-13T07:06:05.641Z,11.80
2018-05-13T07:08:34.023Z,13.50
2018-05-13T07:11:02.441Z,13.60
2018-05-13T07:13:30.820Z,16.27
2018-05-13T07:15:59.325Z,12.37
2018-05-13T07:18:27.701Z,12.63
2018-05-13T07:20:56.086Z,14.03
2018-05-13T07:23:24.489Z,15.17
2018-05-13T07:25:52.864Z,16.10
2018-05-13T07:28:21.274Z,11.13
2018-05-13T07:30:50.416Z,12.17
2018-05-13T07:33:18.844Z,19.73
2018-05-13T07:35:47.989Z,12.60
2018-05-13T07:38:16.373Z,12.60
2018-05-13T07:40:44.812Z,12.43
2018-05-13T07:43:13.192Z,13.10
2018-05-13T07:45:41.592Z,17.03
2018-05-13T07:48:09.972Z,20.93
2018-05-13T07:50:38.673Z,13.03
2018-05-13T07:53:07.051Z,18.70
2018-05-13T07:55:35.435Z,12.43
2018-05-13T07:58:03.847Z,11.87
2018-05-13T08:00:32.229Z,12.50
2018-05-13T08:03:01.399Z,13.23
2018-05-13T08:05:29.785Z,14.80
2018-05-13T08:07:58.384Z,12.13
2018-05-13T08:10:27.532Z,20.63
2018-05-13T08:12:55.907Z,13.53
2018-05-13T08:15:24.311Z,11.87
2018-05-13T08:17:52.690Z,11.43
2018-05-13T08:20:21.187Z,16.23
2018-05-13T08:22:50.253Z,10.90
2018-05-13T08:25:18.930Z,10.57
2018-05-13T08:27:47.299Z,9.50
2018-05-13T08:30:15.678Z,10.10
2018-05-13T08:32:44.080Z,15.60
2018-05-13T08:35:12.452Z,19.40
2018-05-13T08:37:40.930Z,14.53
2018-05-13T08:40:09.313Z,13.03
2018-05-13T08:42:37.718Z,16.03
2018-05-13T08:45:06.112Z,10.07
2018-05-13T08:47:35.246Z,9.23
2018-05-13T08:50:03.640Z,12.97
2018-05-13T08:52:32.014Z,10.73
2018-05-13T08:55:00.405Z,7.60
2018-05-13T08:57:28.780Z,8.57
2018-05-13T08:59:57.564Z,16.40
2018-05-13T09:02:26.038Z,15.23
2018-05-13T09:04:54.432Z,11.10
2018-05-13T09:07:22.829Z,12.17
2018-05-13T09:09:51.288Z,13.67
2018-05-13T09:12:19.686Z,12.03
2018-05-13T09:14:48.064Z,8.83
2018-05-13T09:17:17.948Z,14.90
2018-05-13T09:19:46.359Z,10.27
2018-05-13T09:22:14.735Z,11.10
2018-05-13T09:24:43.139Z,11.97
2018-05-13T09:27:12.277Z,8.17
2018-05-13T09:29:40.913Z,7.33
2018-05-13T09:32:10.053Z,8.77
2018-05-13T09:34:38.435Z,7.93
2018-05-13T09:37:06.826Z,9.07
2018-05-13T09:39:35.238Z,11.67
2018-05-13T09:42:03.629Z,19.50
2018-05-13T09:44:32.773Z,12.33
2018-05-13T09:47:01.353Z,7.10
2018-05-13T09:49:29.728Z,6.50
2018-05-13T09:51:58.101Z,8.77
2018-05-13T09:54:26.495Z,9.37
2018-05-13T09:56:54.873Z,10.47
2018-05-13T09:59:23.265Z,9.83
2018-05-13T10:01:51.697Z,11.23
2018-05-13T10:04:20.312Z,12.13
2018-05-13T10:06:48.685Z,6.83
2018-05-13T10:09:17.054Z,10.60
2018-05-13T10:11:45.450Z,7.23
2018-05-13T10:14:13.823Z,10.53
2018-05-13T10:16:42.220Z,5.30
2018-05-13T10:19:10.589Z,7.83
2018-05-13T10:21:39.244Z,6.40
2018-05-13T10:24:07.616Z,7.23
2018-05-13T10:26:35.985Z,22.10
2018-05-13T10:29:05.160Z,7.90
2018-05-13T10:31:34.305Z,6.10
2018-05-13T10:34:02.721Z,10.23
2018-05-13T10:36:31.188Z,4.83
2018-05-13T10:39:00.312Z,7.40
2018-05-13T10:41:29.457Z,5.57
2018-05-13T10:43:57.830Z,4.77
2018-05-13T10:46:26.242Z,10.23
2018-05-13T10:48:54.608Z,4.10
2018-05-13T10:51:23.008Z,15.10
2018-05-13T10:53:51.436Z,14.33
2018-05-13T10:56:19.864Z,12.57
2018-05-13T10:58:48.242Z,15.33
2018-05-13T11:01:16.617Z,4.00
2018-05-13T11:03:45.009Z,3.30
2018-05-13T11:06:14.145Z,3.73
2018-05-13T11:08:42.545Z,4.00
2018-05-13T11:11:10.916Z,5.93
2018-05-13T11:13:39.609Z,5.83
2018-05-13T11:16:07.974Z,3.87
2018-05-13T11:18:36.357Z,3.27
2018-05-13T11:21:04.762Z,3.93
2018-05-13T11:23:33.128Z,3.53
2018-05-13T11:26:01.558Z,3.93
2018-05-13T11:28:30.688Z,5.87
2018-05-13T11:30:59.131Z,7.40
2018-05-13T11:33:28.266Z,4.00
2018-05-13T11:35:56.632Z,6.10
2018-05-13T11:38:25.038Z,4.87
2018-05-13T11:40:53.407Z,3.17
2018-05-13T11:43:21.805Z,3.10
2018-05-13T11:45:50.174Z,2.77
2018-05-13T11:48:18.825Z,4.80
2018-05-13T11:50:47.147Z,2.80
2018-05-13T11:53:15.515Z,3.13
2018-05-13T11:55:43.904Z,3.13
2018-05-13T11:58:12.285Z,2.93
2018-05-13T12:00:40.686Z,4.33
2018-05-13T12:03:09.828Z,3.07
2018-05-13T12:05:38.416Z,4.13
2018-05-13T12:08:06.781Z,3.57
2018-05-13T12:10:35.152Z,2.00
2018-05-13T12:13:03.548Z,2.50
2018-05-13T12:15:31.912Z,3.10
2018-05-13T12:18:00.318Z,3.10
2018-05-13T12:20:28.745Z,2.40
2018-05-13T12:22:58.083Z,8.67
2018-05-13T12:25:26.473Z,3.70
2018-05-13T12:27:54.844Z,2.80
2018-05-13T12:30:23.236Z,4.10
2018-05-13T12:32:51.608Z,3.63
2018-05-13T12:35:20.000Z,2.83
2018-05-13T12:37:48.379Z,3.23
2018-05-13T12:40:17.040Z,4.20
2018-05-13T12:42:45.416Z,3.43
2018-05-13T12:45:13.789Z,6.30
2018-05-13T12:47:42.189Z,5.37
2018-05-13T12:50:10.625Z,3.93
2018-05-13T12:52:38.985Z,4.50
2018-05-13T12:55:07.370Z,4.53
2018-05-13T12:57:36.716Z,5.30
2018-05-13T13:00:05.104Z,4.87
2018-05-13T13:02:33.472Z,5.57
2018-05-13T13:05:01.864Z,4.03
2018-05-13T13:07:30.236Z,2.40
2018-05-13T13:09:58.629Z,7.43
2018-05-13T13:12:27.000Z,1.60
2018-05-13T13:14:55.460Z,2.13
2018-05-13T13:17:23.836Z,2.50
2018-05-13T13:19:52.207Z,2.03
2018-05-13T13:22:20.613Z,2.83
2018-05-13T13:24:48.981Z,1.63
2018-05-13T13:27:17.361Z,1.57
2018-05-13T13:29:45.736Z,2.10
2018-05-13T13:32:14.536Z,1.00
2018-05-13T13:34:42.921Z,3.37
2018-05-13T13:37:11.296Z,2.90
2018-05-13T13:39:39.686Z,2.13
2018-05-13T13:42:08.066Z,0.80
2018-05-13T13:44:36.531Z,1.10
2018-05-13T13:47:04.905Z,2.50
2018-05-13T13:49:33.309Z,0.90
2018-05-13T13:52:01.680Z,0.70
2018-05-13T13:54:30.056Z,1.17
2018-05-13T13:56:58.452Z,1.23
2018-05-13T13:59:27.005Z,6.30
2018-05-13T14:01:55.501Z,0.90
2018-05-13T14:04:23.828Z,1.53
2018-05-13T14:06:52.440Z,1.80
2018-05-13T14:09:20.864Z,2.20
2018-05-13T14:11:49.241Z,2.77
2018-05-13T14:14:17.629Z,1.47
2018-05-13T14:16:46.766Z,2.63
2018-05-13T14:19:15.161Z,2.30
2018-05-13T14:21:43.538Z,3.30
2018-05-13T14:24:12.135Z,2.20
2018-05-13T14:26:40.505Z,2.33
2018-05-13T14:29:08.941Z,4.30
2018-05-13T14:31:37.306Z,2.93
2018-05-13T14:34:06.452Z,1.93
2018-05-13T14:36:34.844Z,5.27
2018-05-13T14:39:11.822Z,5.30
2018-05-13T14:41:32.598Z,12.50
2018-05-13T14:44:00.975Z,4.43
2018-05-13T14:46:29.364Z,2.23
2018-05-13T14:48:57.797Z,2.70
2018-05-13T14:51:26.949Z,7.33
2018-05-13T14:53:55.359Z,3.30
2018-05-13T14:56:23.733Z,2.37
2018-05-13T14:58:52.179Z,5.87
2018-05-13T15:01:20.553Z,10.93
2018-05-13T15:03:48.929Z,4.53
2018-05-13T15:06:17.299Z,6.03
2018-05-13T15:08:45.694Z,12.20
2018-05-13T15:11:14.066Z,6.83
2018-05-13T15:13:42.475Z,3.77
2018-05-13T15:16:11.047Z,4.93
2018-05-13T15:18:39.416Z,3.73
2018-05-13T15:21:07.827Z,15.00
2018-05-13T15:23:36.969Z,7.67
2018-05-13T15:26:05.372Z,8.20
2018-05-13T15:28:33.742Z,5.53
2018-05-13T15:31:02.355Z,4.03
2018-05-13T15:33:31.517Z,8.70
2018-05-13T15:35:59.889Z,8.67
2018-05-13T15:38:28.281Z,26.10
2018-05-13T15:40:56.657Z,35.30
2018-05-13T15:43:25.157Z,9.50
2018-05-13T15:45:53.449Z,14.13
2018-05-13T15:48:22.284Z,7.50
2018-05-13T15:50:50.835Z,12.03
2018-05-13T15:53:20.056Z,7.07
2018-05-13T15:55:48.450Z,13.10
2018-05-13T15:58:16.824Z,18.30
2018-05-13T16:00:45.221Z,7.83
2018-05-13T16:03:13.600Z,4.17
2018-05-13T16:05:42.022Z,4.90
2018-05-13T16:08:11.293Z,6.90
2018-05-13T16:10:39.700Z,12.13
2018-05-13T16:13:08.876Z,5.30
2018-05-13T16:15:37.273Z,6.90
2018-05-13T16:18:06.531Z,10.17
2018-05-13T16:20:34.996Z,15.60
2018-05-13T16:23:03.448Z,13.20
2018-05-13T16:25:31.846Z,5.50
2018-05-13T16:28:00.450Z,11.53
2018-05-13T16:30:28.836Z,16.47
2018-05-13T16:32:57.313Z,11.50
2018-05-13T16:35:26.545Z,25.97
2018-05-13T16:37:54.924Z,15.47
2018-05-13T16:40:23.333Z,12.10
2018-05-13T16:42:51.923Z,35.87
2018-05-13T16:45:20.745Z,15.63
2018-05-13T16:47:49.139Z,7.23
2018-05-13T16:50:17.516Z,9.20
2018-05-13T16:52:45.933Z,18.93
2018-05-13T16:55:14.463Z,16.87
2018-05-13T16:57:43.673Z,13.80
2018-05-13T17:00:12.046Z,6.87
2018-05-13T17:02:40.708Z,11.73
2018-05-13T17:05:09.090Z,15.57
2018-05-13T17:07:37.542Z,25.13
2018-05-13T17:10:08.224Z,11.50
2018-05-13T17:12:36.994Z,10.50
2018-05-13T17:15:06.829Z,17.93
2018-05-13T17:17:35.356Z,9.50
2018-05-13T17:20:04.301Z,8.30
2018-05-13T17:22:33.172Z,10.63
2018-05-13T17:25:02.368Z,10.43
2018-05-13T17:27:31.056Z,14.87
2018-05-13T17:30:01.226Z,10.53
2018-05-13T17:32:34.687Z,9.23
2018-05-13T17:35:04.146Z,15.50
2018-05-13T17:37:32.585Z,13.13
2018-05-13T17:40:00.967Z,11.27
2018-05-13T17:42:29.459Z,8.67
2018-05-13T17:44:58.660Z,9.10
2018-05-13T17:47:27.829Z,22.97
2018-05-13T17:49:56.299Z,6.53
2018-05-13T17:52:25.719Z,10.40
2018-05-13T17:54:54.093Z,8.57
2018-05-13T17:57:22.576Z,10.90
2018-05-13T17:59:51.836Z,9.87
2018-05-13T18:02:20.572Z,7.83
2018-05-13T18:04:49.634Z,8.00
2018-05-13T18:07:18.018Z,5.53
2018-05-13T18:09:46.688Z,9.50
2018-05-13T18:12:15.077Z,8.00
2018-05-13T18:14:44.159Z,11.60
2018-05-13T18:17:12.649Z,14.40
2018-05-13T18:19:41.837Z,22.63
2018-05-13T18:22:10.301Z,9.10
2018-05-13T18:24:38.796Z,8.50
2018-05-13T18:27:07.365Z,9.27
2018-05-13T18:29:36.100Z,5.57
2018-05-13T18:32:05.376Z,19.50
2018-05-13T18:34:34.108Z,9.65
2018-05-13T18:37:02.860Z,10.85
2018-05-13T18:39:32.107Z,13.90
2018-05-13T18:44:36.134Z,24.00
2018-05-13T18:47:05.272Z,16.55
2018-05-13T18:49:34.066Z,19.95
2018-05-13T18:52:04.529Z,21.52
2018-05-13T18:54:33.388Z,17.23
2018-05-13T18:57:01.905Z,28.25
2018-05-13T18:59:31.417Z,26.50
2018-05-13T19:02:01.857Z,21.83
2018-05-13T19:04:30.595Z,20.75
2018-05-13T19:07:00.397Z,19.87
2018-05-13T19:09:30.404Z,19.67
2018-05-13T19:11:59.647Z,15.93
2018-05-13T19:14:29.005Z,8.38
2018-05-13T19:16:58.763Z,20.62
2018-05-13T19:19:28.633Z,14.38
2018-05-13T19:21:58.318Z,19.48
2018-05-13T19:24:28.668Z,14.50
2018-05-13T19:26:58.893Z,13.00
2018-05-13T19:29:29.874Z,21.75
2018-05-13T19:31:58.759Z,13.90
2018-05-13T19:34:27.603Z,20.45
2018-05-13T19:36:56.543Z,14.07
2018-05-13T19:39:25.449Z,11.23
2018-05-13T19:41:54.503Z,26.87
2018-05-13T19:44:23.018Z,12.32
2018-05-13T19:46:52.155Z,10.55
2018-05-13T19:49:21.204Z,10.48
2018-05-13T19:51:52.189Z,10.00
2018-05-13T19:54:21.598Z,9.27
2018-05-13T19:56:51.900Z,14.00
2018-05-13T19:59:22.866Z,11.52
2018-05-13T20:01:52.395Z,12.75
2018-05-13T20:04:22.325Z,8.30
2018-05-13T20:06:52.868Z,9.35
2018-05-13T20:09:22.755Z,7.82
2018-05-13T20:11:52.118Z,8.02
2018-05-13T20:14:20.587Z,8.10
2018-05-13T20:16:49.046Z,7.87
2018-05-13T20:19:17.534Z,6.10
2018-05-13T20:21:46.324Z,7.70
2018-05-13T20:24:14.775Z,7.55
2018-05-13T20:26:43.213Z,5.93
2018-05-13T20:29:11.790Z,9.52
2018-05-13T20:31:40.696Z,22.95
2018-05-13T20:34:09.477Z,7.53
2018-05-13T20:36:38.112Z,10.75
2018-05-13T20:39:07.044Z,6.10
2018-05-13T20:41:35.532Z,8.07
2018-05-13T20:44:03.927Z,13.13
2018-05-13T20:46:32.361Z,8.10
2018-05-13T20:49:00.740Z,15.93
2018-05-13T20:51:29.208Z,6.00
2018-05-13T20:53:57.668Z,14.27
2018-05-13T20:56:26.804Z,9.27
2018-05-13T20:58:55.205Z,7.50
2018-05-13T21:01:23.584Z,8.07
2018-05-13T21:03:52.000Z,7.50
2018-05-13T21:06:20.385Z,6.40
2018-05-13T21:08:49.568Z,6.30
2018-05-13T21:11:18.734Z,9.95
2018-05-13T21:13:47.116Z,5.57
2018-05-13T21:16:15.522Z,8.68
2018-05-13T21:18:44.664Z,7.35
2018-05-13T21:21:13.161Z,6.75
2018-05-13T21:23:41.668Z,8.57
2018-05-13T21:26:10.634Z,4.65
2018-05-13T21:28:39.028Z,7.00
2018-05-13T21:31:07.404Z,9.55
2018-05-13T21:33:36.640Z,6.37
2018-05-13T21:36:05.784Z,8.45
2018-05-13T21:38:34.545Z,6.57
2018-05-13T21:41:04.229Z,11.20
2018-05-13T21:43:34.226Z,6.32
2018-05-13T21:46:03.325Z,12.23
2018-05-13T21:48:32.444Z,6.60
2018-05-13T21:51:02.168Z,8.75
2018-05-13T21:53:30.615Z,10.93
2018-05-13T21:55:59.918Z,8.15
2018-05-13T21:58:28.329Z,8.27
2018-05-13T22:00:56.889Z,8.27
2018-05-13T22:03:26.042Z,7.32
2018-05-13T22:05:54.436Z,9.65
2018-05-13T22:08:22.872Z,11.80
2018-05-13T22:10:51.253Z,11.10
2018-05-13T22:13:19.805Z,12.77
2018-05-13T22:15:48.967Z,10.95
2018-05-13T22:18:17.397Z,12.45
2018-05-13T22:20:45.775Z,11.15
2018-05-13T22:23:14.296Z,10.43
2018-05-13T22:25:42.764Z,11.25
2018-05-13T22:28:11.863Z,9.57
2018-05-13T22:30:40.273Z,14.77
2018-05-13T22:33:10.161Z,10.77
2018-05-13T22:35:38.732Z,9.10
2018-05-13T22:38:07.117Z,9.68
2018-05-13T22:40:35.600Z,13.18
2018-05-13T22:43:04.570Z,10.27
2018-05-13T22:45:33.177Z,6.97
2018-05-13T22:48:01.579Z,11.25
2018-05-13T22:50:32.651Z,10.18
2018-05-13T22:53:02.205Z,9.65
2018-05-13T22:55:32.773Z,7.62
2018-05-13T22:58:01.988Z,7.10
2018-05-13T23:00:31.152Z,9.18
2018-05-13T23:02:59.529Z,10.77
2018-05-13T23:05:27.980Z,13.38
2018-05-13T23:07:56.330Z,9.60
2018-05-13T23:10:24.719Z,9.65
2018-05-13T23:12:53.094Z,12.43
2018-05-13T23:15:21.694Z,9.90
2018-05-13T23:17:50.073Z,10.18
2018-05-13T23:20:18.452Z,13.45
2018-05-13T23:22:46.854Z,10.10
2018-05-13T23:25:15.235Z,10.57
2018-05-13T23:27:43.644Z,11.27
2018-05-13T23:30:12.791Z,15.13
2018-05-13T23:32:41.530Z,11.12
2018-05-13T23:35:10.677Z,10.45
2018-05-13T23:37:39.056Z,8.82
2018-05-13T23:40:07.865Z,8.07
2018-05-13T23:42:36.245Z,12.07
2018-05-13T23:45:04.654Z,8.32
2018-05-13T23:47:33.043Z,11.85
2018-05-13T23:50:01.649Z,17.17
2018-05-13T23:52:30.025Z,13.13
2018-05-13T23:54:58.404Z,11.95
2018-05-13T23:57:26.806Z,13.05
2018-05-13T23:59:55.184Z,9.18
